• Join FlightAware (Why Join?)
  • Login
  • US Flag 
06:54AM EDT


 

Airport Tracker/Info


-or-


 

Live Flight TrackerFlight Track Log ✈ AAL818 ✈ 17-Jun-2013 ✈ TAPA / ANU - KJFK

Flight Track Log - Related Links

Times and Time Zones

All times are in EDT time to prevent confusion due to time zone crossing. See the AAL818 flight status page for this flight to view local times or setup timezone preferences in your user account.

Time Position Orientation Groundspeed Altitude Reporting Facility
EDT Latitude Longitude Course Direction KTS MPH feet Rate Location/Type
01:04PM 17.2391 -61.8004 356° North  Level FlightAware Approximate
01:05PM 17.3146 -61.8229 349° North  Level FlightAware Approximate
01:06PM 17.4155 -61.8431 349° North  Level FlightAware Approximate
01:07PM 17.5163 -61.8633 349° North  Level FlightAware Approximate
01:08PM 17.6171 -61.8834 349° North  Level FlightAware Approximate
01:09PM 17.7180 -61.9030 351° North  Level FlightAware Approximate
01:10PM 17.8194 -61.9199 351° North  Level FlightAware Approximate
01:11PM 17.9208 -61.9368 351° North  Level FlightAware Approximate
01:12PM 18.0066 -61.9667 North  Level FlightAware Approximate
01:13PM 18.1079 -61.9816 349° North  Level FlightAware Approximate
01:14PM 18.2088 -62.0014 352° North  Level FlightAware Approximate
01:15PM 18.3103 -62.0170 352° North  Level FlightAware Approximate
01:16PM 18.4119 -62.0326 352° North  Level FlightAware Approximate
01:17PM 18.5116 -62.0581 345° North  Level FlightAware Approximate
01:18PM 18.6110 -62.0833 North  Level FlightAware Approximate
01:19PM 18.7193 -62.1005 349° North  Level FlightAware Approximate
01:20PM 18.8271 -62.1221 349° North  Level FlightAware Approximate
01:21PM 18.9350 -62.1437 349° North  Level FlightAware Approximate
01:22PM 19.0432 -62.1628 351° North  Level FlightAware Approximate
01:23PM 19.1513 -62.1830 350° North  Level FlightAware Approximate
01:24PM 19.2593 -62.2040 350° North  Level FlightAware Approximate
01:24PM 17.6667 -61.9000 350° North 350 403 15,000  Level San Juan Center
01:25PM 19.3672 -62.2249 350° North  Level FlightAware Approximate
01:25PM 17.7667 -61.9167 351° North 370 426 17,300  Level San Juan Center
01:26PM 19.4752 -62.2459 350° North  Level FlightAware Approximate
01:26PM 17.8667 -61.9333 351° North 370 426 19,600  Level San Juan Center
01:27PM 19.5832 -62.2669 350° North  Level FlightAware Approximate
01:27PM 17.9667 -61.9500 351° North 380 437 21,500  Level San Juan Center
01:28PM 19.6911 -62.2879 350° North  Level FlightAware Approximate
01:28PM 18.0833 -61.9833 345° North 390 449 23,300  Level San Juan Center
01:29PM 19.7999 -62.3092 350° North  Level FlightAware Approximate
01:29PM 18.2000 -62.0000 352° North 400 460 24,900  Level San Juan Center
01:30PM 19.9088 -62.3304 350° North  Level FlightAware Approximate
01:30PM 18.3167 -62.0167 352° North 410 472 26,300  Level San Juan Center
01:31PM 18.4333 -62.0500 345° North 430 495 27,800 1,380 Climbing San Juan Center
01:33PM 18.5500 -62.0667 352° North 430 495 29,100 1,080 Climbing San Juan Center
01:34PM 18.6500 -62.0833 351° North 440 506 30,000 960 Climbing San Juan Center
01:36PM 18.9167 -62.1333 350° North 450 518 32,100 960 Climbing San Juan Center
01:37PM 19.0500 -62.1667 347° North 460 529 33,000 1,080 Climbing San Juan Center
01:38PM 19.1833 -62.1833 353° North 470 541 34,300 1,200 Climbing San Juan Center
01:39PM 19.3000 -62.2167 345° North 460 529 35,500 540 Climbing San Juan Center
01:41PM 19.5667 -62.2667 350° North 460 529 36,000 120 Climbing San Juan Center
01:42PM 19.6833 -62.2833 352° North 460 529 36,000  Level San Juan Center
01:43PM 19.8167 -62.3167 347° North 460 529 36,000  Level San Juan Center
01:44PM 19.9333 -62.3333 352° North 460 529 36,000  Level San Juan Center
01:45PM 20.0667 -62.3667 347° North 460 529 36,000  Level San Juan Center
01:46PM 20.2000 -62.3833 353° North 470 541 36,000  Level San Juan Center
01:47PM 20.3167 -62.4167 345° North 470 541 36,000 -60 Level San Juan Center
01:48PM 20.4500 -62.4333 353° North 460 529 35,900  Descending San Juan Center
01:49PM 20.5833 -62.4667 347° North 470 541 36,000  Climbing San Juan Center
01:51PM 20.8070 -62.5084 350° North  Level FlightAware Approximate
01:52PM 20.5333 -62.4500 349° North 449 517 36,000  Level New York Oceanic (ODAPS)
01:58PM 21.7697 -62.6970 349° North 449 517 36,000  Level FlightAware Transoceanic
01:59PM 21.8933 -62.7219 349° North 449 517 36,000  Level FlightAware Transoceanic
02:00PM 22.0169 -62.7469 349° North 449 517 36,000  Level FlightAware Transoceanic
02:01PM 22.1406 -62.7719 349° North 449 517 36,000  Level FlightAware Transoceanic
02:02PM 22.2642 -62.7969 349° North 449 517 36,000  Level FlightAware Transoceanic
02:03PM 22.3878 -62.8220 349° North 449 517 36,000  Level FlightAware Transoceanic
02:04PM 22.5114 -62.8472 349° North 449 517 36,000  Level FlightAware Transoceanic
02:05PM 22.6350 -62.8724 349° North 449 517 36,000  Level FlightAware Transoceanic
02:06PM 22.7585 -62.8976 349° North 449 517 36,000  Level FlightAware Transoceanic
02:07PM 22.8821 -62.9229 349° North 449 517 36,000  Level FlightAware Transoceanic
02:08PM 23.0057 -62.9482 349° North 449 517 36,000  Level FlightAware Transoceanic
02:09PM 23.1293 -62.9736 349° North 449 517 36,000  Level FlightAware Transoceanic
02:10PM 23.2529 -62.9990 349° North 449 517 36,000  Level FlightAware Transoceanic
02:11PM 23.3764 -63.0245 349° North 449 517 36,000  Level FlightAware Transoceanic
02:11PM 23.5000 -63.0500 349° North 466 536 36,000  Level New York Oceanic (ODAPS)
02:12PM 23.5000 -63.0500 349° North 449 517 36,000  Level FlightAware Transoceanic
02:13PM 23.6305 -63.0768 349° North 449 517 36,000  Level FlightAware Transoceanic
02:14PM 23.7610 -63.1037 349° North 449 517 36,000  Level FlightAware Transoceanic
02:15PM 23.8914 -63.1306 349° North 449 517 36,000  Level FlightAware Transoceanic
02:16PM 24.0219 -63.1576 349° North 449 517 36,000  Level FlightAware Transoceanic
02:17PM 24.2658 -63.2082 349° North 466 536 36,000  Level FlightAware Transoceanic
02:18PM 24.3934 -63.2348 349° North 466 536 36,000  Level FlightAware Transoceanic
02:19PM 24.5211 -63.2614 349° North 466 536 36,000  Level FlightAware Transoceanic
02:20PM 24.6487 -63.2880 349° North 466 536 36,000  Level FlightAware Transoceanic
02:21PM 24.7763 -63.3147 349° North 466 536 36,000  Level FlightAware Transoceanic
02:22PM 24.9039 -63.3415 349° North 466 536 36,000  Level FlightAware Transoceanic
02:23PM 25.0315 -63.3683 349° North 466 536 36,000  Level FlightAware Transoceanic
02:24PM 25.1591 -63.3952 349° North 466 536 36,000  Level FlightAware Transoceanic
02:25PM 25.2867 -63.4222 349° North 466 536 36,000  Level FlightAware Transoceanic
02:26PM 25.4142 -63.4492 349° North 466 536 36,000  Level FlightAware Transoceanic
02:27PM 25.5418 -63.4762 349° North 466 536 36,000  Level FlightAware Transoceanic
02:28PM 25.6694 -63.5033 349° North 466 536 36,000  Level FlightAware Transoceanic
02:29PM 25.7970 -63.5305 349° North 466 536 36,000  Level FlightAware Transoceanic
02:30PM 25.9245 -63.5577 349° North 466 536 36,000  Level FlightAware Transoceanic
02:31PM 26.0521 -63.5850 349° North 466 536 36,000  Level FlightAware Transoceanic
02:32PM 26.1796 -63.6123 349° North 466 536 36,000  Level FlightAware Transoceanic
02:33PM 26.3072 -63.6397 349° North 466 536 36,000  Level FlightAware Transoceanic
02:34PM 26.4347 -63.6672 349° North 466 536 36,000  Level FlightAware Transoceanic
02:35PM 26.5623 -63.6947 349° North 466 536 36,000  Level FlightAware Transoceanic
02:36PM 26.6898 -63.7223 349° North 466 536 36,000  Level FlightAware Transoceanic
02:37PM 26.8173 -63.7500 349° North 466 536 36,000  Level FlightAware Transoceanic
02:38PM 26.9448 -63.7777 349° North 466 536 36,000  Level FlightAware Transoceanic
02:39PM 27.0724 -63.8054 349° North 466 536 36,000  Level FlightAware Transoceanic
02:40PM 27.1999 -63.8333 349° North 466 536 36,000  Level FlightAware Transoceanic
02:41PM 27.3274 -63.8612 349° North 466 536 36,000  Level FlightAware Transoceanic
02:42PM 27.4549 -63.8891 349° North 466 536 36,000  Level FlightAware Transoceanic
02:43PM 27.5824 -63.9172 349° North 466 536 36,000  Level FlightAware Transoceanic
02:44PM 27.7099 -63.9453 349° North 466 536 36,000  Level FlightAware Transoceanic
02:45PM 27.8373 -63.9734 349° North 466 536 36,000  Level FlightAware Transoceanic
02:46PM 27.9648 -64.0016 349° North 466 536 36,000  Level FlightAware Transoceanic
02:47PM 28.0923 -64.0300 349° North 466 536 36,000  Level FlightAware Transoceanic
02:48PM 28.2197 -64.0583 349° North 466 536 36,000  Level FlightAware Transoceanic
02:49PM 28.3472 -64.0867 349° North 466 536 36,000  Level FlightAware Transoceanic
02:50PM 28.4747 -64.1152 349° North 466 536 36,000  Level FlightAware Transoceanic
02:51PM 28.6021 -64.1438 349° North 466 536 36,000  Level FlightAware Transoceanic
02:52PM 28.7295 -64.1724 349° North 466 536 36,000  Level FlightAware Transoceanic
02:53PM 28.8570 -64.2011 349° North 466 536 36,000  Level FlightAware Transoceanic
02:54PM 28.9844 -64.2299 349° North 466 536 36,000  Level FlightAware Transoceanic
02:55PM 29.1118 -64.2588 349° North 466 536 36,000  Level FlightAware Transoceanic
02:56PM 29.2393 -64.2877 349° North 466 536 36,000  Level FlightAware Transoceanic
02:57PM 29.3667 -64.3167 341° North 466 536 36,000  Level FlightAware Transoceanic
02:57PM 29.3667 -64.3167 341° North 447 514 36,000  Level New York Oceanic (ODAPS)
02:58PM 29.4841 -64.3639 341° North 466 536 36,000  Level FlightAware Transoceanic
02:59PM 29.6015 -64.4112 341° North 466 536 36,000  Level FlightAware Transoceanic
03:00PM 29.7190 -64.4586 341° North 466 536 36,000  Level FlightAware Transoceanic
03:01PM 29.8364 -64.5061 341° North 466 536 36,000  Level FlightAware Transoceanic
03:02PM 29.9538 -64.5537 341° North 466 536 36,000 1,740 Level FlightAware Transoceanic
03:02PM 29.3667 -64.3167 341° North 447 514 38,000  Climbing New York Oceanic (ODAPS)
03:03PM 30.0711 -64.6015 341° North 447 514 36,000 -1,080 Descending FlightAware Transoceanic
03:04PM 30.1885 -64.6494 341° North 447 514 36,000  Level FlightAware Transoceanic
03:05PM 30.3058 -64.6973 341° North 447 514 36,000  Level FlightAware Transoceanic
03:06PM 30.4231 -64.7454 341° North 447 514 36,000  Level FlightAware Transoceanic
03:07PM 30.5404 -64.7936 340° North 447 514 36,000 960 Level FlightAware Transoceanic
03:08PM 30.6577 -64.8420 340° North 447 514 38,000 960 Climbing FlightAware Transoceanic
03:09PM 30.7749 -64.8904 340° North 447 514 38,000  Level FlightAware Transoceanic
03:10PM 30.8922 -64.9390 340° North 447 514 38,000  Level FlightAware Transoceanic
03:11PM 31.0094 -64.9877 340° North 447 514 38,000  Level FlightAware Transoceanic
03:12PM 31.1266 -65.0365 340° North 447 514 38,000  Level FlightAware Transoceanic
03:13PM 31.2438 -65.0854 340° North 447 514 38,000  Level FlightAware Transoceanic
03:14PM 31.3610 -65.1344 340° North 447 514 38,000  Level FlightAware Transoceanic
03:15PM 31.4781 -65.1836 340° North 447 514 38,000  Level FlightAware Transoceanic
03:16PM 31.5952 -65.2329 340° North 447 514 38,000  Level FlightAware Transoceanic
03:17PM 31.7124 -65.2823 340° North 447 514 38,000  Level FlightAware Transoceanic
03:18PM 31.8294 -65.3318 340° North 447 514 38,000  Level FlightAware Transoceanic
03:19PM 31.9465 -65.3815 340° North 447 514 38,000  Level FlightAware Transoceanic
03:20PM 32.0636 -65.4313 340° North 447 514 38,000  Level FlightAware Transoceanic
03:21PM 32.1806 -65.4812 340° North 447 514 38,000  Level FlightAware Transoceanic
03:22PM 32.2976 -65.5313 340° North 447 514 38,000  Level FlightAware Transoceanic
03:23PM 32.4146 -65.5814 340° North 447 514 38,000  Level FlightAware Transoceanic
03:24PM 32.5316 -65.6317 340° North 447 514 38,000  Level FlightAware Transoceanic
03:25PM 32.6485 -65.6822 340° North 447 514 38,000  Level FlightAware Transoceanic
03:26PM 32.7655 -65.7327 340° North 447 514 38,000  Level FlightAware Transoceanic
03:27PM 32.8824 -65.7834 340° North 447 514 38,000  Level FlightAware Transoceanic
03:28PM 32.9993 -65.8343 340° North 447 514 38,000  Level FlightAware Transoceanic
03:29PM 33.1162 -65.8853 340° North 447 514 38,000  Level FlightAware Transoceanic
03:30PM 33.2330 -65.9364 340° North 447 514 38,000  Level FlightAware Transoceanic
03:31PM 33.3498 -65.9876 340° North 447 514 38,000  Level FlightAware Transoceanic
03:32PM 33.4666 -66.0390 340° North 447 514 38,000  Level FlightAware Transoceanic
03:33PM 33.5834 -66.0905 340° North 447 514 38,000  Level FlightAware Transoceanic
03:34PM 33.7002 -66.1422 340° North 447 514 38,000  Level FlightAware Transoceanic
03:35PM 33.8170 -66.1940 340° North 447 514 38,000  Level FlightAware Transoceanic
03:36PM 33.9337 -66.2459 340° North 447 514 38,000  Level FlightAware Transoceanic
03:37PM 34.0504 -66.2980 340° North 447 514 38,000  Level FlightAware Transoceanic
03:38PM 34.1671 -66.3502 340° North 447 514 38,000  Level FlightAware Transoceanic
03:39PM 34.2837 -66.4026 340° North 447 514 38,000  Level FlightAware Transoceanic
03:40PM 34.4003 -66.4551 340° North 447 514 38,000  Level FlightAware Transoceanic
03:41PM 34.5170 -66.5078 340° North 447 514 38,000  Level FlightAware Transoceanic
03:42PM 34.6335 -66.5606 340° North 447 514 38,000  Level FlightAware Transoceanic
03:43PM 34.7501 -66.6136 340° North 447 514 38,000  Level FlightAware Transoceanic
03:44PM 34.8667 -66.6667 323° Northwest 447 514 38,000  Level FlightAware Transoceanic
03:45PM 34.9591 -66.7523 323° Northwest 447 514 38,000  Level FlightAware Transoceanic
03:46PM 35.0514 -66.8382 323° Northwest 447 514 38,000  Level FlightAware Transoceanic
03:47PM 35.1438 -66.9243 323° Northwest 447 514 38,000  Level FlightAware Transoceanic
03:48PM 35.2360 -67.0105 323° Northwest 447 514 38,000  Level FlightAware Transoceanic
03:48PM 34.8667 -66.6667 323° Northwest 416 479 38,000  Level New York Oceanic (ODAPS)
03:49PM 35.3282 -67.0970 323° Northwest 447 514 38,000  Level FlightAware Transoceanic
03:50PM 35.4203 -67.1836 322° Northwest 447 514 38,000  Level FlightAware Transoceanic
03:51PM 35.5124 -67.2705 322° Northwest 447 514 38,000  Level FlightAware Transoceanic
03:52PM 35.6044 -67.3575 322° Northwest 447 514 38,000  Level FlightAware Transoceanic
03:53PM 35.6963 -67.4447 322° Northwest 447 514 38,000  Level FlightAware Transoceanic
03:54PM 35.6044 -67.3575 322° Northwest 416 479 38,000  Level FlightAware Transoceanic
03:55PM 35.6963 -67.4447 322° Northwest 416 479 38,000  Level FlightAware Transoceanic
03:56PM 35.7882 -67.5322 322° Northwest 416 479 38,000  Level FlightAware Transoceanic
03:57PM 35.8800 -67.6199 322° Northwest 416 479 38,000  Level FlightAware Transoceanic
03:58PM 35.9717 -67.7077 322° Northwest 416 479 38,000  Level FlightAware Transoceanic
03:59PM 36.0634 -67.7958 322° Northwest 416 479 38,000  Level FlightAware Transoceanic
04:00PM 36.1550 -67.8840 322° Northwest 416 479 38,000  Level FlightAware Transoceanic
04:01PM 36.2465 -67.9725 322° Northwest 416 479 38,000  Level FlightAware Transoceanic
04:10PM 37.0675 -68.7782 322° Northwest 416 479 38,000  Level FlightAware Transoceanic
04:11PM 37.1584 -68.8688 321° Northwest 416 479 38,000  Level FlightAware Transoceanic
04:12PM 37.2492 -68.9596 321° Northwest 416 479 38,000  Level FlightAware Transoceanic
04:13PM 37.3399 -69.0506 321° Northwest 416 479 38,000  Level FlightAware Transoceanic
04:14PM 37.4306 -69.1418 321° Northwest 416 479 38,000  Level FlightAware Transoceanic
04:15PM 37.5212 -69.2333 321° Northwest 416 479 38,000  Level FlightAware Transoceanic
04:16PM 37.6117 -69.3250 321° Northwest 416 479 38,000  Level FlightAware Transoceanic
04:17PM 37.7022 -69.4169 321° Northwest 416 479 38,000  Level FlightAware Transoceanic
04:18PM 37.7925 -69.5091 321° Northwest 416 479 38,000  Level FlightAware Transoceanic
04:19PM 37.8829 -69.6014 321° Northwest 416 479 38,000  Level FlightAware Transoceanic
04:19PM 37.9119 -69.6114 321° Northwest 450 518 38,000  Level New York Center
04:20PM 37.9731 -69.6940 321° Northwest 416 479 38,000  Level FlightAware Transoceanic
04:20PM 38.0003 -69.7156 317° Northwest 438 504 38,000  Level New York Center
04:21PM 38.0633 -69.7868 321° Northwest 416 479 38,000  Level FlightAware Transoceanic
04:21PM 38.0931 -69.8147 320° Northwest 433 498 38,000 -120 Level New York Center
04:22PM 38.1856 -69.9139 320° Northwest 433 498 37,900 -60 Descending New York Center
04:23PM 38.2675 -70.0189 315° West 428 493 37,900  Level New York Center
04:24PM 38.3225 -70.1506 298° West 421 484 37,900  Level New York Center
04:25PM 38.3936 -70.2561 311° West 416 479 38,000  Climbing New York Center
04:26PM 38.4464 -70.3908 297° West 410 472 38,000  Level New York Center
04:27PM 38.5050 -70.5153 301° West 410 472 38,000  Level New York Center
04:28PM 38.5636 -70.6400 301° West 410 472 38,000  Level New York Center
04:29PM 38.6242 -70.7542 304° West 405 466 38,000 -60 Level New York Center
04:30PM 38.6803 -70.8792 300° West 405 466 37,900 -60 Descending New York Center
04:31PM 38.7342 -71.0100 298° West 405 466 37,900  Level New York Center
04:32PM 38.7922 -71.1300 302° West 400 460 37,900  Level New York Center
04:33PM 38.8503 -71.2503 302° West 395 455 37,900  Level New York Center
04:38PM 39.1670 -71.9310 302° West 389 448 38,000  Climbing FlightAware
04:39PM 39.2010 -72.0070 300° West 385 443 38,000 -660 Level FlightAware
04:40PM 39.2510 -72.1160 301° West 384 442 37,000 -2,280 Descending FlightAware
04:41PM 39.2850 -72.1920 300° West 385 443 34,200 -3,900 Descending FlightAware
04:41PM 39.3270 -72.2860 300° West 392 451 31,800 -3,540 Descending FlightAware
04:42PM 39.3710 -72.3840 300° West 393 452 29,200 -3,480 Descending FlightAware
04:42PM 39.3814 -72.4073 300° West 394 453 28,600 -3,000 Descending FlightAware ADS-B
04:43PM 39.4080 -72.4660 300° West 393 452 27,200 -2,700 Descending FlightAware
04:44PM 39.4410 -72.5410 300° West 397 457 25,600 -2,520 Descending FlightAware
04:45PM 39.5230 -72.7250 300° West 395 455 22,000 -2,460 Descending FlightAware
04:46PM 39.5620 -72.8140 300° West 372 428 20,200 -2,280 Descending FlightAware
04:46PM 39.5880 -72.8730 300° West 365 420 19,000 -2,160 Descending FlightAware
04:47PM 39.6270 -72.9610 300° West 362 417 17,200 -2,400 Descending FlightAware
04:48PM 39.6600 -73.0360 300° West 362 417 15,600 -1,620 Descending FlightAware
04:49PM 39.6980 -73.1240 299° West 362 417 15,000 -2,340 Descending FlightAware
04:49PM 39.7462 -73.2331 300° West 356 410 11,900  Descending FlightAware ADS-B
04:50PM 39.7530 -73.2550 292° West 362 417 15,000 -720 Climbing FlightAware
04:51PM 39.8310 -73.4310 300° West 352 405 10,500 -2,280 Descending FlightAware
04:52PM 39.8540 -73.4880 298° West 352 405 10,500 -1,320 Level FlightAware
04:52PM 39.8970 -73.5820 301° West 342 394 9,000 -1,500 Descending FlightAware
04:53PM 39.9140 -73.6210 300° West 341 392 9,100 60 Climbing FlightAware
04:53PM 39.9410 -73.6820 300° West 343 395 9,100 -120 Level FlightAware
04:54PM 39.9640 -73.7360 299° West 316 364 9,000 -120 Descending FlightAware
04:54PM 39.9830 -73.7800 299° West 281 323 9,000  Level FlightAware
04:55PM 39.9965 -73.8126 298° West 263 303 9,000  Level FlightAware ADS-B
04:55PM 40.0167 -73.8598 299° West 257 296 9,000 60 Level FlightAware ADS-B
04:56PM 40.0264 -73.8824 299° West 257 296 9,100 120 Climbing FlightAware ADS-B
04:56PM 40.0386 -73.9110 299° West 258 297 9,100  Level FlightAware ADS-B
04:56PM 40.0557 -73.9327 316° Northwest 261 300 9,100 -180 Level FlightAware ADS-B
04:57PM 40.0844 -73.9351 356° North 277 319 9,000  Descending FlightAware ADS-B
04:57PM 40.1138 -73.8979 44° Northeast 308 354 9,100 120 Climbing FlightAware ADS-B
04:57PM 40.1163 -73.8869 73° East 313 360 9,100 -240 Level FlightAware ADS-B
04:58PM 40.1213 -73.8529 79° East 313 360 9,000 -840 Descending FlightAware ADS-B
04:58PM 40.1257 -73.8212 80° East 314 361 8,600 -1,680 Descending FlightAware ADS-B
04:58PM 40.1300 -73.7897 80° East 317 365 8,100 -1,500 Descending FlightAware ADS-B
04:58PM 40.1345 -73.7581 79° East 315 362 7,800 -1,020 Descending FlightAware ADS-B
04:59PM 40.1451 -73.7157 72° East 311 358 7,400 -1,260 Descending FlightAware ADS-B
04:59PM 40.1770 -73.6650 51° Northeast 293 337 6,500 -1,380 Descending FlightAware
05:00PM 40.2150 -73.6060 50° Northeast 286 329 5,600 -1,140 Descending FlightAware
05:01PM 40.2320 -73.5780 52° Northeast 288 331 5,300 -840 Descending FlightAware
05:01PM 40.2590 -73.5380 48° Northeast 287 330 4,900 -960 Descending FlightAware
05:02PM 40.2830 -73.5020 49° Northeast 286 329 4,400 -600 Descending FlightAware
05:02PM 40.3010 -73.4740 50° Northeast 286 329 4,400 -420 Level FlightAware
05:03PM 40.3520 -73.4630 North 275 316 4,000 -420 Descending FlightAware
05:03PM 40.3870 -73.4480 18° North 278 320 4,000  Level FlightAware
05:03PM 40.4070 -73.4440 North 277 319 4,000  Level FlightAware
05:04PM 40.4430 -73.4470 356° North 276 318 4,000  Level FlightAware
05:04PM 40.4900 -73.4430 North 276 318 4,000  Level FlightAware
05:05PM 40.5280 -73.4350 North 277 319 4,000  Level FlightAware
05:05PM 40.5680 -73.4260 10° North 276 318 4,000  Level FlightAware
05:06PM 40.6020 -73.4180 10° North 272 313 4,000  Level FlightAware
05:06PM 40.6350 -73.4090 12° North 246 283 4,000 -240 Level FlightAware
05:07PM 40.6660 -73.4010 11° North 232 267 3,800 -480 Descending FlightAware
05:07PM 40.6940 -73.3920 14° North 212 244 3,600 -600 Descending FlightAware
05:08PM 40.7150 -73.3860 12° North 201 231 3,300 -840 Descending FlightAware
05:08PM 40.7250 -73.3780 31° Northeast 209 241 3,100 -660 Descending FlightAware
05:08PM 40.7340 -73.3610 55° Northeast 216 249 3,000 -180 Descending FlightAware
05:09PM 40.7530 -73.3350 46° Northeast 204 235 3,000  Level FlightAware
05:09PM 40.7600 -73.3330 12° North 201 231 3,000  Level FlightAware
05:09PM 40.7940 -73.3370 355° North 189 217 3,000  Level FlightAware
05:10PM 40.8140 -73.3400 354° North 189 217 3,000 -420 Level FlightAware
05:12PM 40.8260 -73.4760 277° West 167 192 2,000 -420 Descending FlightAware
05:12PM 40.8220 -73.4960 255° West 168 193 2,000  Level FlightAware
05:13PM 40.8170 -73.5230 256° West 169 194 2,000  Level FlightAware
05:13PM 40.8140 -73.5430 259° West 168 193 2,000  Level FlightAware
05:13PM 40.8190 -73.5630 288° West 173 199 2,000  Level FlightAware
05:14PM 40.8180 -73.6060 268° West 173 199 2,000  Level FlightAware
05:15PM 40.8040 -73.6280 230° Southwest 176 203 2,000  Level FlightAware
05:15PM 40.7870 -73.6440 215° Southwest 175 201 2,000  Level FlightAware
05:16PM 40.7660 -73.6610 212° Southwest 176 203 2,000  Level FlightAware
05:16PM 40.7470 -73.6750 209° Southwest 176 203 2,000  Level FlightAware
05:16PM 40.7350 -73.6840 210° Southwest 174 200 2,000 -480 Level FlightAware
05:17PM 40.7210 -73.6960 213° Southwest 155 178 1,700 -780 Descending FlightAware
05:17PM 40.7110 -73.7030 208° Southwest 145 167 1,500 -720 Descending FlightAware
05:17PM 40.6950 -73.7160 212° Southwest 147 169 1,200 -780 Descending FlightAware
05:18PM 40.6790 -73.7280 210° Southwest 146 168 800 -780 Descending FlightAware
05:18PM 40.6620 -73.7420 212° Southwest 146 168 500 -720 Descending FlightAware
05:19PM 40.6440 -73.7560 211° Southwest 145 167 100 -840 Descending FlightAware
05:19PM 40.6330 -73.7650 212° Southwest 66 76 -240 Descending FlightAware
05:20PM 40.6290 -73.7690 217° Southwest 22 25  Level FlightAware
05:20PM 40.6300 -73.7710 303° West 26 30  Level FlightAware
05:21PM 40.6300 -73.7720 270° West 27 31  Level FlightAware
05:21PM 40.6310 -73.7740 303° West 18 21  Level FlightAware
05:24PM 40.6320 -73.7750 323° Northwest 19 22  Level FlightAware
05:24PM 40.6320 -73.7760 270° West 16 18  Level FlightAware